Fennville, Michigan
Current Conditions -  °F | °C
As of 4:19 AM on Monday 24 Nov 2014 (Local Time) from KBIV Reporting Station
Light Rain Light Rain  
Wind Chill: 51°   Ceiling: 400
Heat Index: 51°   Visibility: 10mi
Dew Point: 49°   Wind: 20mph
Humidity: 92%   Direction: 230°SW
Pressure: 29.04"   Gusts: 25mph
Location:  42.59°N, 86.1°W
Report Text: KBIV 240919Z AUTO 23017G22KT 10SM -RA OVC004 11/09 A2904 RMK AO2 P0001 T01060094
Loading
Personal Weather Stations






























Interactive Weather Map New forecast layout! Learn more

10-Day Weather Forecast

Advertisements
Track Severe Weather on mobile